This is the latest recevied weather packets stored in our database for station/object K9TLD. If no packets are shown the sender has not sent any weather packets the latest 1 day(s).
| Time | Temp. | Humidity | Pressure | Rain* | Wind** | Luminosity | Snow |
|---|---|---|---|---|---|---|---|
| 1778053151 | 3.89° C | 84% | 1012.9 hPa | 0 mm | - | 0 W/m² | - |
| 1778052849 | 3.89° C | 80% | 1012.8 hPa | 0 mm | - | 0 W/m² | - |
| 1778051639 | 2.78° C | 68% | 1013.1 hPa | 0 mm | - | 0 W/m² | - |
| 1778051335 | 2.78° C | 67% | 1012.8 hPa | 0 mm | - | 0 W/m² | - |
| 1778051032 | 2.78° C | 67% | 1012.9 hPa | 0 mm | - | 0 W/m² | - |
| 1778050729 | 3.33° C | 67% | 1012.7 hPa | 0 mm | - | 0 W/m² | - |
| 1778050427 | 3.33° C | 66% | 1012.8 hPa | 0 mm | - | 0 W/m² | - |
| 1778049214 | 3.33° C | 65% | 1012.7 hPa | 0 mm | - | 0 W/m² | - |
| 1778046792 | 4.44° C | 61% | 1013.2 hPa | 0 mm | - | 0 W/m² | - |
| 1778045881 | 4.44° C | 59% | 1013 hPa | 0 mm | - | 0 W/m² | - |
| 1778045581 | 5° C | 59% | 1013.1 hPa | 0 mm | - | 0 W/m² | - |
| 1778045278 | 5° C | 58% | 1012.9 hPa | 0 mm | - | 0 W/m² | - |
| 1778044068 | 5.56° C | 57% | 1012.8 hPa | 0 mm | - | 0 W/m² | - |
| 1778043765 | 5.56° C | 56% | 1012.8 hPa | 0 mm | - | 0 W/m² | - |
| 1778043461 | 5.56° C | 57% | 1012.9 hPa | 0 mm | - | 0 W/m² | - |
| 1778043158 | 5.56° C | 56% | 1012.9 hPa | 0 mm | - | 0 W/m² | - |
| 1778042855 | 6.11° C | 56% | 1012.9 hPa | 0 mm | - | 0 W/m² | - |
| 1778042552 | 6.11° C | 55% | 1012.8 hPa | 0 mm | - | 0 W/m² | - |
| 1778042250 | 6.67° C | 54% | 1012.5 hPa | 0 mm | - | 0 W/m² | - |
| 1778041947 | 6.67° C | 54% | 1012.6 hPa | 0 mm | - | 0 W/m² | - |
| 1778041646 | 6.67° C | 53% | 1012.6 hPa | 0 mm | - | 0 W/m² | - |
| 1778041344 | 6.67° C | 54% | 1012.7 hPa | 0 mm | - | 0 W/m² | - |
| 1778041042 | 6.67° C | 52% | 1012.6 hPa | 0 mm | - | 0 W/m² | - |
| 1778040739 | 7.22° C | 52% | 1012.7 hPa | 0 mm | - | 0 W/m² | - |
| 1778039830 | 7.22° C | 52% | 1012.4 hPa | 0 mm | - | 0 W/m² | - |
* Rain latest hour (hover to see other rain measurements)
** Current wind speed in m/s (hover to see current wind gust speed)